Time;durP1;ratioP1;P1;durP2;ratioP2;P2;SDS_P1;SDS_P2;PMS_P1;PMS_P2;Temp;Humidity;BMP_temperature;BMP_pressure;BME280_temperature;BME280_humidity;BME280_pressure;Samples;Min_cycle;Max_cycle;Signal;HPM_P1;HPM_P2
2023/05/17 00:01:52;;;;;;;5.77;1.50;;;8.30;99.90;;;;;;5179661;27;20201;-60
2023/05/17 00:04:18;;;;;;;4.07;1.93;;;8.10;99.90;;;;;;5180004;27;20225;-59
2023/05/17 00:06:45;;;;;;;4.30;1.90;;;8.00;99.90;;;;;;5180242;27;20201;-60
2023/05/17 00:09:13;;;;;;;3.23;1.80;;;7.90;99.90;;;;;;5179605;27;20241;-60
2023/05/17 00:11:40;;;;;;;2.63;1.50;;;8.00;99.90;;;;;;5179818;27;20205;-61
2023/05/17 00:14:07;;;;;;;6.93;1.27;;;8.00;99.90;;;;;;5180461;27;20284;-61
2023/05/17 00:16:34;;;;;;;4.60;1.50;;;8.10;99.90;;;;;;5179709;27;20206;-60
2023/05/17 00:19:01;;;;;;;3.27;1.60;;;8.10;99.90;;;;;;5180362;27;20201;-60
2023/05/17 00:21:28;;;;;;;4.30;1.60;;;8.00;99.90;;;;;;5179954;27;20269;-60
2023/05/17 00:23:55;;;;;;;3.93;1.60;;;8.00;99.90;;;;;;5179813;27;20594;-60
2023/05/17 00:26:23;;;;;;;6.33;1.80;;;8.00;99.90;;;;;;5180210;27;20288;-60
2023/05/17 00:28:50;;;;;;;4.57;2.17;;;8.00;99.90;;;;;;5179458;27;20748;-60
2023/05/17 00:31:17;;;;;;;4.90;1.70;;;8.00;99.90;;;;;;5179352;27;20237;-60
2023/05/17 00:33:45;;;;;;;3.00;2.00;;;7.90;99.90;;;;;;5178799;27;20242;-60
2023/05/17 00:36:12;;;;;;;3.47;1.90;;;7.90;99.90;;;;;;5179232;27;20202;-59
2023/05/17 00:38:39;;;;;;;4.50;1.90;;;7.90;99.90;;;;;;5179108;27;20217;-60
2023/05/17 00:41:06;;;;;;;6.00;1.70;;;7.80;99.90;;;;;;5179848;27;20213;-59
2023/05/17 00:43:34;;;;;;;2.43;1.60;;;7.80;99.90;;;;;;5179653;27;20313;-60
2023/05/17 00:46:01;;;;;;;6.10;1.90;;;7.90;99.90;;;;;;5179089;27;20284;-60
2023/05/17 00:48:29;;;;;;;3.43;1.70;;;7.90;99.90;;;;;;5178962;27;20254;-60
2023/05/17 00:50:56;;;;;;;3.83;1.70;;;7.90;99.90;;;;;;5178899;27;20228;-60
2023/05/17 00:53:23;;;;;;;3.47;1.50;;;7.90;99.90;;;;;;5178911;27;20225;-60
2023/05/17 00:55:51;;;;;;;11.33;1.70;;;7.90;99.90;;;;;;5177978;27;20210;-60
2023/05/17 00:58:18;;;;;;;3.03;1.67;;;8.00;99.90;;;;;;5178458;27;20564;-60
2023/05/17 01:00:47;;;;;;;2.90;1.40;;;8.00;99.90;;;;;;5178933;27;20292;-60
2023/05/17 01:03:13;;;;;;;4.53;1.30;;;8.00;99.90;;;;;;5177854;27;20222;-60
2023/05/17 01:05:40;;;;;;;5.03;1.40;;;8.10;99.90;;;;;;5177670;27;20204;-59
2023/05/17 01:08:08;;;;;;;3.73;1.30;;;8.10;99.90;;;;;;5178706;27;20197;-60
2023/05/17 01:10:41;;;;;;;3.87;1.03;;;8.20;99.90;;;;;;5178712;27;20217;-60
2023/05/17 01:13:15;;;;;;;4.27;1.10;;;8.20;99.90;;;;;;5179035;27;20668;-59
2023/05/17 01:15:51;;;;;;;3.53;1.53;;;8.20;99.90;;;;;;5178061;27;20225;-59
2023/05/17 01:18:27;;;;;;;2.90;1.10;;;8.20;99.90;;;;;;5178749;27;20265;-60
2023/05/17 01:20:58;;;;;;;6.00;1.60;;;8.30;99.90;;;;;;5178690;27;20435;-60
2023/05/17 01:23:35;;;;;;;3.93;1.37;;;8.30;99.90;;;;;;5178424;27;20244;-61
2023/05/17 01:26:08;;;;;;;2.53;1.63;;;8.30;99.90;;;;;;5178208;27;20206;-60
2023/05/17 01:28:38;;;;;;;3.73;2.10;;;8.20;99.90;;;;;;5178225;27;20280;-60
2023/05/17 01:31:05;;;;;;;3.63;1.67;;;8.20;99.90;;;;;;5178679;27;20236;-60
2023/05/17 01:33:33;;;;;;;6.73;1.83;;;8.20;99.90;;;;;;5177575;27;20226;-60
2023/05/17 01:36:00;;;;;;;4.57;1.70;;;8.10;99.90;;;;;;5177678;27;20204;-60
2023/05/17 01:38:27;;;;;;;4.37;1.83;;;8.00;99.90;;;;;;5178470;27;20226;-60
2023/05/17 01:40:58;;;;;;;4.57;1.50;;;7.90;99.90;;;;;;5178833;27;20246;-59
2023/05/17 01:43:35;;;;;;;2.50;1.60;;;7.80;99.90;;;;;;5178466;27;20217;-61
2023/05/17 01:46:10;;;;;;;5.60;1.93;;;7.70;99.90;;;;;;5177981;27;20197;-61
2023/05/17 01:48:43;;;;;;;1.80;1.30;;;7.60;99.90;;;;;;5178284;27;20204;-60
2023/05/17 01:51:16;;;;;;;4.33;1.43;;;7.50;99.90;;;;;;5178326;27;20201;-61
2023/05/17 01:53:48;;;;;;;4.17;1.70;;;7.50;99.90;;;;;;5164550;22;20313;-66
2023/05/17 01:56:19;;;;;;;2.33;1.40;;;7.50;99.90;;;;;;5111926;28;20260;-65
2023/05/17 01:58:48;;;;;;;4.07;1.50;;;7.50;99.90;;;;;;5112115;28;20211;-66
2023/05/17 02:01:18;;;;;;;3.53;1.77;;;7.50;99.90;;;;;;5112309;28;20325;-65
2023/05/17 02:03:48;;;;;;;4.67;1.70;;;7.50;99.90;;;;;;5112370;28;20227;-65
2023/05/17 02:06:15;;;;;;;3.70;1.77;;;7.50;99.90;;;;;;5112027;28;20219;-67
2023/05/17 02:08:42;;;;;;;2.13;1.50;;;7.50;99.90;;;;;;5112209;28;20203;-67
2023/05/17 02:11:09;;;;;;;3.63;1.63;;;7.40;99.90;;;;;;5112139;28;20208;-66
2023/05/17 02:13:35;;;;;;;3.77;1.67;;;7.40;99.90;;;;;;5112113;28;20227;-65
2023/05/17 02:16:03;;;;;;;3.03;1.50;;;7.50;99.90;;;;;;5113213;28;20211;-65
2023/05/17 02:18:31;;;;;;;4.57;2.00;;;7.50;99.90;;;;;;5114875;28;20584;-66
2023/05/17 02:20:58;;;;;;;2.40;1.63;;;7.40;99.90;;;;;;5118795;27;20211;-67
2023/05/17 02:23:24;;;;;;;2.03;1.30;;;7.40;99.90;;;;;;5116916;28;20717;-67
2023/05/17 02:25:51;;;;;;;2.73;1.70;;;7.40;99.90;;;;;;5115555;28;20207;-67
2023/05/17 02:28:18;;;;;;;3.57;2.00;;;7.40;99.90;;;;;;5115748;28;20203;-67
2023/05/17 02:30:44;;;;;;;4.17;2.10;;;7.40;99.90;;;;;;5115659;28;20670;-67
2023/05/17 02:33:11;;;;;;;3.13;2.00;;;7.40;99.90;;;;;;5115677;28;20250;-65
2023/05/17 02:35:39;;;;;;;6.70;2.10;;;7.30;99.90;;;;;;5115520;28;20207;-68
2023/05/17 02:38:06;;;;;;;3.67;2.20;;;7.30;99.90;;;;;;5115562;28;20204;-65
2023/05/17 02:40:33;;;;;;;4.20;2.10;;;7.30;99.90;;;;;;5115585;28;20233;-64
2023/05/17 02:43:00;;;;;;;3.57;2.10;;;7.30;99.90;;;;;;5115637;28;20235;-65
2023/05/17 02:45:27;;;;;;;3.83;1.93;;;7.30;99.90;;;;;;5115317;28;20254;-66
2023/05/17 02:47:53;;;;;;;4.53;2.00;;;7.20;99.90;;;;;;5115282;28;20210;-67
2023/05/17 02:50:20;;;;;;;3.17;1.97;;;7.20;99.90;;;;;;5115438;27;20224;-67
2023/05/17 02:52:48;;;;;;;3.97;1.73;;;7.20;99.90;;;;;;5114991;28;20207;-65
2023/05/17 02:55:15;;;;;;;4.87;1.90;;;7.20;99.90;;;;;;5115052;28;20601;-67
2023/05/17 02:57:41;;;;;;;6.00;2.40;;;7.20;99.90;;;;;;5115374;28;20204;-66
2023/05/17 03:00:09;;;;;;;4.60;1.47;;;7.20;99.90;;;;;;5115020;28;20666;-65
2023/05/17 03:02:35;;;;;;;2.47;1.47;;;7.10;99.90;;;;;;5114999;28;20619;-65
2023/05/17 03:05:03;;;;;;;3.53;1.40;;;7.10;99.90;;;;;;5114934;27;20230;-65
2023/05/17 03:07:30;;;;;;;3.27;1.50;;;7.10;99.90;;;;;;5115038;28;20261;-65
2023/05/17 03:09:58;;;;;;;4.17;1.83;;;7.10;99.90;;;;;;5115175;28;20561;-65
2023/05/17 03:12:25;;;;;;;5.43;2.17;;;7.00;99.90;;;;;;5115615;27;20204;-67
2023/05/17 03:14:51;;;;;;;19.33;14.87;;;7.10;99.90;;;;;;5115383;28;20231;-64
2023/05/17 03:17:18;;;;;;;5.13;2.30;;;7.10;99.90;;;;;;5115214;28;20203;-66
2023/05/17 03:19:45;;;;;;;2.70;1.50;;;7.10;99.90;;;;;;5114774;28;20207;-66
2023/05/17 03:22:11;;;;;;;3.90;1.60;;;7.10;99.90;;;;;;5115032;28;20575;-65
2023/05/17 03:24:38;;;;;;;3.57;2.90;;;7.00;99.90;;;;;;5114697;28;20706;-66
2023/05/17 03:27:06;;;;;;;4.53;1.80;;;7.10;99.90;;;;;;5114550;28;20211;-67
2023/05/17 03:29:33;;;;;;;2.60;1.60;;;7.10;99.90;;;;;;5114446;27;20614;-67
2023/05/17 03:32:00;;;;;;;4.97;1.60;;;7.10;99.90;;;;;;5114419;28;20204;-66
2023/05/17 03:34:27;;;;;;;6.93;3.13;;;7.10;99.90;;;;;;5114292;28;20289;-67
2023/05/17 03:36:54;;;;;;;8.80;4.07;;;7.10;99.90;;;;;;5114111;28;20675;-68
2023/05/17 03:39:20;;;;;;;6.53;3.27;;;7.00;99.90;;;;;;5114550;28;20260;-67
2023/05/17 03:41:47;;;;;;;8.07;3.43;;;7.00;99.90;;;;;;5114443;28;20199;-67
2023/05/17 03:44:15;;;;;;;8.83;3.37;;;6.90;99.90;;;;;;5114205;28;20216;-67
2023/05/17 03:46:42;;;;;;;9.67;3.67;;;6.90;99.90;;;;;;5114218;28;20210;-67
2023/05/17 03:49:08;;;;;;;9.43;4.03;;;6.90;99.90;;;;;;5114482;28;20207;-67
2023/05/17 03:51:35;;;;;;;3.67;2.20;;;7.00;99.90;;;;;;5114567;28;20216;-66
2023/05/17 03:54:02;;;;;;;5.13;2.20;;;7.00;99.90;;;;;;5114378;28;20234;-66
2023/05/17 03:56:28;;;;;;;5.17;3.17;;;7.10;99.90;;;;;;5113871;28;20207;-66
2023/05/17 03:58:55;;;;;;;14.00;7.23;;;7.20;99.90;;;;;;5114633;28;20218;-67
2023/05/17 04:01:23;;;;;;;8.73;4.30;;;7.30;99.90;;;;;;5114890;28;20211;-67
2023/05/17 04:03:50;;;;;;;8.87;3.20;;;7.40;99.90;;;;;;5114789;27;20642;-67
2023/05/17 04:06:17;;;;;;;14.03;2.63;;;7.40;99.90;;;;;;5116201;28;20675;-66
2023/05/17 04:08:43;;;;;;;6.53;3.57;;;7.50;99.90;;;;;;5119347;28;20203;-66
2023/05/17 04:11:12;;;;;;;3.40;2.27;;;7.60;99.90;;;;;;5116670;28;20208;-66
2023/05/17 04:13:39;;;;;;;6.03;3.10;;;7.70;99.90;;;;;;5114300;28;20230;-67
2023/05/17 04:16:07;;;;;;;5.83;1.83;;;7.70;99.90;;;;;;5113251;28;20207;-68
2023/05/17 04:18:36;;;;;;;3.90;1.80;;;7.80;99.90;;;;;;5113849;27;20212;-68
2023/05/17 04:21:03;;;;;;;3.57;2.10;;;7.80;99.90;;;;;;5113637;28;20203;-67
2023/05/17 04:23:30;;;;;;;5.07;1.67;;;7.80;99.90;;;;;;5113476;28;20231;-67
2023/05/17 04:25:57;;;;;;;5.97;2.07;;;7.90;99.90;;;;;;5112830;28;20599;-67
2023/05/17 04:28:24;;;;;;;3.10;1.70;;;8.00;99.90;;;;;;5113691;28;20295;-66
2023/05/17 04:30:52;;;;;;;3.70;1.73;;;8.20;99.90;;;;;;5113154;28;20321;-67
2023/05/17 04:33:18;;;;;;;5.97;1.97;;;8.40;99.90;;;;;;5113264;28;20223;-67
2023/05/17 04:35:46;;;;;;;4.23;2.00;;;8.60;99.90;;;;;;5113097;27;20600;-67
2023/05/17 04:38:13;;;;;;;3.40;1.87;;;8.70;99.90;;;;;;5113188;28;20214;-67
2023/05/17 04:40:41;;;;;;;6.43;1.93;;;8.90;99.90;;;;;;5113000;28;20261;-67
2023/05/17 04:43:07;;;;;;;4.50;2.40;;;9.00;99.90;;;;;;5112321;28;20258;-67
2023/05/17 04:45:34;;;;;;;3.27;1.90;;;9.20;99.90;;;;;;5112864;28;20696;-67
2023/05/17 04:48:01;;;;;;;5.20;2.30;;;9.50;99.90;;;;;;5113111;28;20204;-67
2023/05/17 04:50:28;;;;;;;2.93;1.70;;;9.60;99.90;;;;;;5113135;28;20298;-67
2023/05/17 04:52:56;;;;;;;7.90;5.23;;;9.80;99.90;;;;;;5112772;27;20642;-67
2023/05/17 04:55:22;;;;;;;5.30;2.20;;;10.00;99.90;;;;;;5112624;28;20215;-67
2023/05/17 04:57:49;;;;;;;6.10;2.80;;;10.30;99.90;;;;;;5112736;28;20255;-67
2023/05/17 05:00:17;;;;;;;4.50;2.30;;;10.50;99.90;;;;;;5112663;28;20697;-67
2023/05/17 05:02:45;;;;;;;2.87;1.70;;;10.70;99.90;;;;;;5112714;28;20203;-67
2023/05/17 05:05:12;;;;;;;5.47;2.00;;;11.00;99.90;;;;;;5113032;28;20203;-67
2023/05/17 05:07:38;;;;;;;5.83;2.57;;;11.20;99.90;;;;;;5113447;28;20213;-67
2023/05/17 05:10:08;;;;;;;7.07;2.10;;;11.30;99.90;;;;;;5113468;28;20294;-67
2023/05/17 05:12:34;;;;;;;5.40;1.97;;;11.50;99.90;;;;;;5112968;28;20596;-68
2023/05/17 05:15:01;;;;;;;8.67;4.33;;;11.60;99.90;;;;;;5113348;28;20227;-68
2023/05/17 05:17:30;;;;;;;2.50;1.50;;;11.70;99.90;;;;;;5113288;28;20203;-68
2023/05/17 05:19:57;;;;;;;5.97;2.77;;;11.80;99.90;;;;;;5112952;28;20629;-68
2023/05/17 05:22:24;;;;;;;5.97;3.17;;;12.10;99.90;;;;;;5113248;28;20263;-66
2023/05/17 05:24:50;;;;;;;4.67;2.17;;;12.30;99.90;;;;;;5112375;28;20225;-68
2023/05/17 05:27:18;;;;;;;4.30;1.90;;;12.70;99.90;;;;;;5112415;28;20271;-66
2023/05/17 05:29:46;;;;;;;3.00;1.73;;;13.60;99.90;;;;;;5112515;28;20260;-65
2023/05/17 05:32:14;;;;;;;3.47;2.10;;;15.20;99.90;;;;;;5112612;28;20900;-66
2023/05/17 05:34:40;;;;;;;2.87;1.63;;;16.70;99.90;;;;;;5112202;28;20241;-66
2023/05/17 05:37:07;;;;;;;7.60;1.73;;;17.60;99.90;;;;;;5112005;28;20238;-66
2023/05/17 05:39:34;;;;;;;7.10;1.60;;;18.10;99.90;;;;;;5112345;28;20207;-66
2023/05/17 05:42:02;;;;;;;5.65;1.77;;;18.10;99.90;;;;;;5112583;28;20208;-66
2023/05/17 05:44:30;;;;;;;5.20;2.22;;;17.90;99.90;;;;;;5112413;28;20567;-66
2023/05/17 05:46:56;;;;;;;4.60;2.17;;;18.00;99.90;;;;;;5111965;28;20204;-66
2023/05/17 05:49:23;;;;;;;4.45;2.72;;;18.20;99.90;;;;;;5112182;28;20207;-68
2023/05/17 05:51:50;;;;;;;5.03;2.53;;;18.50;99.90;;;;;;5112351;28;20215;-66
2023/05/17 05:54:17;;;;;;;6.70;2.20;;;19.10;99.90;;;;;;5113665;28;20235;-67
2023/05/17 05:56:43;;;;;;;4.57;2.13;;;19.20;99.90;;;;;;5116131;28;20210;-67
2023/05/17 05:59:10;;;;;;;3.72;1.83;;;19.70;99.60;;;;;;5116379;28;20204;-69
2023/05/17 06:01:40;;;;;;;2.55;1.58;;;20.40;97.20;;;;;;5116331;28;20215;-69
2023/05/17 06:04:06;;;;;;;3.88;1.50;;;20.50;96.20;;;;;;5116259;28;20276;-69
2023/05/17 06:06:33;;;;;;;6.55;2.17;;;20.40;95.00;;;;;;5115634;28;20203;-67
2023/05/17 06:09:00;;;;;;;3.60;1.88;;;19.80;95.70;;;;;;5116117;27;20230;-66
2023/05/17 06:11:27;;;;;;;4.63;1.70;;;20.30;95.00;;;;;;5115998;28;20671;-66
2023/05/17 06:13:53;;;;;;;6.32;2.28;;;20.40;93.50;;;;;;5115842;28;20627;-67
2023/05/17 06:16:20;;;;;;;4.15;1.70;;;19.90;94.00;;;;;;5115452;28;20574;-66
2023/05/17 06:18:48;;;;;;;6.10;2.20;;;19.90;94.00;;;;;;5115942;28;20273;-65
2023/05/17 06:21:16;;;;;;;4.05;1.88;;;19.90;93.60;;;;;;5115803;28;20204;-63
2023/05/17 06:23:43;;;;;;;4.63;2.25;;;20.30;93.40;;;;;;5115560;28;20334;-65
2023/05/17 06:26:10;;;;;;;3.40;1.80;;;20.50;93.00;;;;;;5115686;28;20248;-65
2023/05/17 06:28:36;;;;;;;3.45;2.08;;;21.40;92.30;;;;;;5116053;28;20211;-65
2023/05/17 06:31:03;;;;;;;3.03;1.75;;;22.00;91.40;;;;;;5115845;28;20215;-63
2023/05/17 06:33:30;;;;;;;2.95;2.03;;;22.80;89.40;;;;;;5115167;28;20227;-63
2023/05/17 06:35:58;;;;;;;6.32;2.13;;;22.90;88.00;;;;;;5115057;28;20292;-63
2023/05/17 06:38:25;;;;;;;4.38;2.03;;;23.90;86.00;;;;;;5115365;27;20207;-63
2023/05/17 06:40:52;;;;;;;5.20;2.15;;;24.30;82.00;;;;;;5115516;28;20230;-63
2023/05/17 06:43:19;;;;;;;7.72;2.22;;;24.20;80.00;;;;;;5115266;28;20227;-64
2023/05/17 06:45:46;;;;;;;6.70;2.40;;;24.00;79.30;;;;;;5114820;28;20196;-63
2023/05/17 06:48:13;;;;;;;4.80;2.00;;;24.40;79.30;;;;;;5114902;28;20215;-64
2023/05/17 06:50:39;;;;;;;5.10;2.40;;;24.70;77.40;;;;;;5115266;28;20199;-64
2023/05/17 06:53:08;;;;;;;3.72;1.95;;;24.80;76.20;;;;;;5114984;28;20330;-64
2023/05/17 06:55:34;;;;;;;4.75;2.20;;;24.50;75.80;;;;;;5114739;28;20215;-64
2023/05/17 06:58:01;;;;;;;5.07;2.45;;;23.70;77.60;;;;;;5115228;28;20200;-65
2023/05/17 07:00:28;;;;;;;4.18;2.30;;;23.80;79.70;;;;;;5115014;28;20199;-64
2023/05/17 07:02:55;;;;;;;5.85;2.10;;;25.10;75.60;;;;;;5114701;28;20219;-64
2023/05/17 07:05:22;;;;;;;4.25;2.25;;;25.20;74.30;;;;;;5113992;28;20203;-66
2023/05/17 07:07:49;;;;;;;6.43;3.03;;;26.00;72.20;;;;;;5114912;27;20599;-64
2023/05/17 07:10:17;;;;;;;5.28;2.50;;;27.30;68.90;;;;;;5114899;28;20256;-64
2023/05/17 07:12:44;;;;;;;5.78;2.33;;;27.40;68.10;;;;;;5114899;28;20214;-64
2023/05/17 07:15:11;;;;;;;4.28;2.60;;;27.20;66.70;;;;;;5114996;28;20223;-64
2023/05/17 07:17:38;;;;;;;4.60;2.10;;;26.80;66.90;;;;;;5114757;28;20203;-65
2023/05/17 07:20:05;;;;;;;3.63;2.03;;;27.40;65.20;;;;;;5116105;28;20207;-65
2023/05/17 07:22:32;;;;;;;8.48;2.10;;;27.90;63.60;;;;;;5115495;28;20667;-64
2023/05/17 07:24:59;;;;;;;6.30;2.53;;;27.80;62.70;;;;;;5115829;28;20220;-64
2023/05/17 07:27:27;;;;;;;4.10;2.22;;;27.00;62.80;;;;;;5114973;27;20595;-64
2023/05/17 07:29:54;;;;;;;5.57;2.58;;;26.50;64.00;;;;;;5114781;28;20199;-64
2023/05/17 07:32:21;;;;;;;4.35;2.47;;;25.00;65.60;;;;;;5114611;28;20629;-64
2023/05/17 07:34:47;;;;;;;5.38;2.60;;;23.80;68.90;;;;;;5114411;28;20235;-64
2023/05/17 07:37:14;;;;;;;5.47;2.45;;;23.20;70.20;;;;;;5114229;28;20199;-64
2023/05/17 07:39:41;;;;;;;4.30;2.20;;;22.40;71.10;;;;;;5114204;28;20261;-64
2023/05/17 07:42:07;;;;;;;5.95;2.65;;;21.80;72.10;;;;;;5114122;28;20610;-64
2023/05/17 07:44:35;;;;;;;4.43;2.25;;;21.70;72.70;;;;;;5113855;28;20228;-64
2023/05/17 07:47:02;;;;;;;6.07;3.00;;;21.40;73.30;;;;;;5113816;27;20204;-64
2023/05/17 07:49:30;;;;;;;4.55;2.60;;;20.80;73.80;;;;;;5114091;28;20207;-64
2023/05/17 07:51:57;;;;;;;5.57;2.40;;;20.30;76.70;;;;;;5114283;28;20246;-64
2023/05/17 07:54:25;;;;;;;6.47;2.72;;;20.20;78.20;;;;;;5138628;22;20223;-60
2023/05/17 07:56:54;;;;;;;4.68;2.30;;;20.20;77.70;;;;;;5117800;28;20226;-62
2023/05/17 07:59:20;;;;;;;5.10;2.95;;;20.90;77.10;;;;;;5118790;28;20208;-61
2023/05/17 08:01:48;;;;;;;5.10;2.88;;;21.60;74.60;;;;;;5118904;28;20333;-63
2023/05/17 08:04:16;;;;;;;9.20;4.18;;;21.20;75.20;;;;;;5118998;28;20223;-62
2023/05/17 08:06:44;;;;;;;6.78;2.90;;;20.20;77.70;;;;;;5118139;28;20203;-61
2023/05/17 08:09:11;;;;;;;7.00;2.83;;;19.50;78.90;;;;;;5118079;28;20211;-62
2023/05/17 08:11:44;;;;;;;4.47;2.60;;;18.50;81.20;;;;;;5118218;28;20249;-62
2023/05/17 08:14:12;;;;;;;7.47;2.78;;;17.60;84.60;;;;;;5118481;28;20669;-63
2023/05/17 08:16:39;;;;;;;4.78;2.58;;;17.20;85.60;;;;;;5116968;28;20591;-61
2023/05/17 08:19:07;;;;;;;6.00;2.42;;;16.80;87.20;;;;;;5118430;28;20235;-61
2023/05/17 08:21:36;;;;;;;6.90;2.65;;;16.40;89.60;;;;;;5118173;28;20322;-60
2023/05/17 08:24:03;;;;;;;6.68;2.90;;;16.50;90.30;;;;;;5119090;28;20223;-60
2023/05/17 08:26:29;;;;;;;7.18;2.75;;;17.20;91.00;;;;;;5119616;28;20245;-61
2023/05/17 08:28:56;;;;;;;5.70;2.50;;;18.70;86.80;;;;;;5120968;28;20207;-61
2023/05/17 08:31:23;;;;;;;4.63;2.47;;;19.70;83.20;;;;;;5119056;28;20207;-62
2023/05/17 08:33:50;;;;;;;6.07;2.47;;;20.10;81.00;;;;;;5118033;28;20308;-62
2023/05/17 08:36:18;;;;;;;10.63;2.70;;;20.10;80.90;;;;;;5118793;28;20714;-60
2023/05/17 08:38:45;;;;;;;5.28;2.70;;;19.60;82.90;;;;;;5115694;28;20208;-67
2023/05/17 08:41:13;;;;;;;6.82;2.55;;;19.10;82.00;;;;;;5117969;28;20200;-62
2023/05/17 08:43:41;;;;;;;6.25;2.45;;;18.70;82.60;;;;;;5117056;28;20694;-62
2023/05/17 08:46:10;;;;;;;4.15;2.60;;;18.60;83.10;;;;;;5116885;28;20207;-60
2023/05/17 08:48:40;;;;;;;8.50;2.75;;;18.60;81.60;;;;;;5116058;28;20204;-60
2023/05/17 08:51:08;;;;;;;3.95;2.40;;;18.80;83.10;;;;;;5116102;28;20210;-60
2023/05/17 08:53:36;;;;;;;4.10;2.55;;;18.80;83.30;;;;;;5116095;28;20228;-61
2023/05/17 08:56:06;;;;;;;7.63;2.53;;;18.80;81.90;;;;;;5115117;28;20311;-61
2023/05/17 08:58:36;;;;;;;5.07;2.40;;;18.80;80.80;;;;;;5115783;28;20211;-59
2023/05/17 09:01:03;;;;;;;6.60;2.67;;;18.80;81.50;;;;;;5115513;28;20187;-66
2023/05/17 09:03:32;;;;;;;4.68;2.40;;;18.50;83.30;;;;;;5116489;28;20323;-61
2023/05/17 09:05:59;;;;;;;4.30;2.47;;;18.50;81.70;;;;;;5115861;28;20299;-62
2023/05/17 09:08:27;;;;;;;5.28;2.58;;;18.40;81.60;;;;;;5114633;28;20250;-60
2023/05/17 09:10:58;;;;;;;4.20;2.58;;;18.20;82.20;;;;;;5115723;28;20214;-61
2023/05/17 09:13:25;;;;;;;6.65;2.75;;;18.10;82.50;;;;;;5114778;28;20219;-61
2023/05/17 09:15:53;;;;;;;5.25;2.45;;;18.10;83.00;;;;;;5115198;28;20718;-61
2023/05/17 09:18:21;;;;;;;4.57;2.00;;;18.00;82.80;;;;;;5115602;28;20210;-60
2023/05/17 09:20:51;;;;;;;4.03;2.15;;;18.00;84.20;;;;;;5110960;28;20208;-60
2023/05/17 09:23:21;;;;;;;4.25;2.17;;;18.00;83.30;;;;;;5112390;28;20621;-60
2023/05/17 09:25:49;;;;;;;5.13;2.28;;;18.00;83.70;;;;;;5113675;28;20460;-59
2023/05/17 09:28:19;;;;;;;8.73;2.40;;;17.80;83.30;;;;;;5113714;28;20204;-57
2023/05/17 09:30:48;;;;;;;3.72;2.33;;;17.70;84.10;;;;;;5113204;28;20207;-58
2023/05/17 09:33:15;;;;;;;6.07;2.53;;;17.70;84.90;;;;;;5113624;28;20211;-57
2023/05/17 09:35:42;;;;;;;5.25;2.78;;;17.80;83.50;;;;;;5113376;28;20737;-59
2023/05/17 09:38:10;;;;;;;4.97;2.60;;;17.60;84.00;;;;;;5113706;28;20242;-61
2023/05/17 09:40:41;;;;;;;5.43;2.60;;;17.60;84.30;;;;;;5113663;28;20308;-60
2023/05/17 09:43:08;;;;;;;4.25;2.15;;;17.90;83.00;;;;;;5114041;28;20204;-59
2023/05/17 09:45:37;;;;;;;4.97;2.20;;;18.10;81.40;;;;;;5113257;28;20704;-59
2023/05/17 09:48:16;;;;;;;3.63;2.10;;;18.50;80.60;;;;;;5114016;28;20200;-59
2023/05/17 09:50:46;;;;;;;5.18;2.15;;;19.00;81.30;;;;;;5113721;28;20207;-58
2023/05/17 09:53:24;;;;;;;2.80;2.10;;;19.40;79.20;;;;;;5113058;28;20279;-59
2023/05/17 09:55:53;;;;;;;3.40;2.25;;;19.30;80.20;;;;;;5112992;28;20224;-60
2023/05/17 09:58:21;;;;;;;6.57;2.50;;;19.30;79.00;;;;;;5112667;28;20620;-60
2023/05/17 10:00:52;;;;;;;4.28;2.38;;;19.30;79.00;;;;;;5112224;28;20721;-58
2023/05/17 10:03:20;;;;;;;7.10;2.10;;;19.30;77.80;;;;;;5113379;28;20651;-59
2023/05/17 10:05:50;;;;;;;4.22;2.33;;;19.20;78.00;;;;;;5113030;28;20211;-58
2023/05/17 10:08:21;;;;;;;5.50;2.42;;;19.30;78.80;;;;;;5113182;28;20216;-57
2023/05/17 10:10:49;;;;;;;4.65;2.45;;;19.30;76.50;;;;;;5113419;28;20203;-60
2023/05/17 10:13:23;;;;;;;5.15;2.63;;;18.80;77.00;;;;;;5113148;28;20737;-59
2023/05/17 10:15:53;;;;;;;4.95;2.60;;;18.30;77.40;;;;;;5114114;28;20202;-61
2023/05/17 10:18:21;;;;;;;5.97;2.83;;;18.00;78.00;;;;;;5114213;28;20294;-59
2023/05/17 10:20:49;;;;;;;5.18;2.63;;;17.70;79.60;;;;;;5114379;28;20667;-63
2023/05/17 10:23:17;;;;;;;4.72;2.60;;;17.50;81.00;;;;;;5114177;28;20574;-60
2023/05/17 10:25:46;;;;;;;4.53;2.53;;;17.40;82.10;;;;;;5112940;28;20263;-58
2023/05/17 10:28:16;;;;;;;5.13;2.15;;;17.20;82.50;;;;;;5112160;28;20293;-62
2023/05/17 10:30:44;;;;;;;8.05;2.67;;;17.00;81.60;;;;;;5113239;28;20295;-59
2023/05/17 10:33:15;;;;;;;3.90;2.53;;;16.90;82.50;;;;;;5113998;28;20211;-61
2023/05/17 10:35:44;;;;;;;4.47;2.65;;;16.90;83.50;;;;;;5114187;28;20214;-60
2023/05/17 10:38:12;;;;;;;4.88;2.80;;;17.00;84.20;;;;;;5114237;28;20261;-60
2023/05/17 10:40:40;;;;;;;4.88;2.35;;;17.20;84.00;;;;;;5114792;28;20214;-62
2023/05/17 10:43:10;;;;;;;5.93;2.70;;;17.10;83.60;;;;;;5116888;28;20318;-60
2023/05/17 10:45:38;;;;;;;6.70;2.75;;;17.00;84.00;;;;;;5116080;28;20246;-66
2023/05/17 10:48:05;;;;;;;3.92;2.25;;;17.10;84.60;;;;;;5117894;28;20268;-60
2023/05/17 10:50:38;;;;;;;7.13;2.70;;;17.00;85.30;;;;;;5118669;28;20293;-61
2023/05/17 10:53:09;;;;;;;8.18;2.75;;;16.90;84.40;;;;;;5118507;28;20203;-63
2023/05/17 10:55:40;;;;;;;4.20;2.40;;;16.80;83.80;;;;;;5115324;28;20272;-62
2023/05/17 10:58:15;;;;;;;3.85;2.25;;;16.90;83.80;;;;;;5114672;28;20231;-58
2023/05/17 11:00:44;;;;;;;4.28;2.40;;;17.30;82.70;;;;;;5116750;28;20211;-59
2023/05/17 11:03:16;;;;;;;4.38;2.55;;;17.60;82.20;;;;;;5117863;28;20207;-66
2023/05/17 11:05:45;;;;;;;4.10;2.50;;;17.90;81.20;;;;;;5116307;28;20295;-59
2023/05/17 11:08:14;;;;;;;4.78;2.42;;;18.20;80.40;;;;;;5115906;28;20200;-60
2023/05/17 11:11:10;;;;;;;4.68;2.58;;;18.40;80.20;;;;;;5115763;28;20604;-60
2023/05/17 11:13:45;;;;;;;4.68;2.60;;;18.40;79.30;;;;;;5115860;28;20242;-59
2023/05/17 11:16:16;;;;;;;3.85;2.33;;;18.10;80.10;;;;;;5115335;28;20207;-59
2023/05/17 11:18:47;;;;;;;6.53;2.53;;;17.60;82.00;;;;;;5115361;28;20234;-59
2023/05/17 11:21:15;;;;;;;5.10;2.58;;;17.20;84.90;;;;;;5115515;28;20250;-59
2023/05/17 11:23:43;;;;;;;4.45;2.45;;;16.80;85.80;;;;;;5115213;28;20234;-59
2023/05/17 11:26:17;;;;;;;4.30;2.17;;;16.50;86.70;;;;;;5115087;28;20236;-59
2023/05/17 11:28:44;;;;;;;3.42;2.20;;;16.40;87.10;;;;;;5115317;28;20207;-59
2023/05/17 11:31:11;;;;;;;4.50;2.25;;;16.50;87.30;;;;;;5115234;28;20570;-59
2023/05/17 11:33:41;;;;;;;5.93;2.30;;;16.50;88.00;;;;;;5114840;28;20224;-59
2023/05/17 11:36:18;;;;;;;4.55;2.38;;;16.80;86.90;;;;;;5115141;28;20207;-58
2023/05/17 11:38:47;;;;;;;7.00;5.28;;;16.80;86.00;;;;;;5115136;28;20225;-64
2023/05/17 11:41:20;;;;;;;6.20;2.60;;;16.80;86.90;;;;;;5114965;28;20253;-60
2023/05/17 11:43:48;;;;;;;4.32;2.40;;;16.80;85.50;;;;;;5114973;28;20254;-59
2023/05/17 11:46:23;;;;;;;6.20;2.30;;;16.80;85.90;;;;;;5114458;28;20203;-60
2023/05/17 11:48:52;;;;;;;6.13;2.70;;;16.80;85.50;;;;;;5114937;28;20199;-59
2023/05/17 11:51:19;;;;;;;6.70;2.67;;;16.60;86.30;;;;;;5114859;28;20242;-59
2023/05/17 11:53:47;;;;;;;3.93;2.33;;;16.80;86.90;;;;;;5114383;28;20628;-59
2023/05/17 11:56:16;;;;;;;6.72;2.67;;;17.00;86.00;;;;;;5114197;28;20221;-59
2023/05/17 11:58:45;;;;;;;4.72;2.10;;;17.10;86.50;;;;;;5114215;28;20294;-59
2023/05/17 12:01:12;;;;;;;3.40;2.13;;;17.10;84.80;;;;;;5114225;28;20207;-59
2023/05/17 12:03:39;;;;;;;4.28;2.30;;;17.00;85.70;;;;;;5114580;28;20288;-60
2023/05/17 12:06:08;;;;;;;4.88;2.50;;;17.00;86.50;;;;;;5114717;28;20239;-60
2023/05/17 12:08:36;;;;;;;5.95;2.47;;;17.10;85.10;;;;;;5114220;28;20566;-59
2023/05/17 12:11:04;;;;;;;3.70;2.47;;;17.10;85.10;;;;;;5114113;28;20256;-62
2023/05/17 12:13:33;;;;;;;3.40;2.35;;;17.40;85.00;;;;;;5114315;28;20219;-59
2023/05/17 12:16:04;;;;;;;4.82;2.50;;;17.70;84.70;;;;;;5115734;28;20231;-64
2023/05/17 12:18:36;;;;;;;5.40;2.33;;;18.00;84.10;;;;;;5117423;28;20400;-66
2023/05/17 12:21:03;;;;;;;7.00;2.42;;;18.20;81.90;;;;;;5116844;28;20562;-60
2023/05/17 12:23:32;;;;;;;5.57;2.20;;;18.20;82.40;;;;;;5115509;28;20223;-61
2023/05/17 12:26:06;;;;;;;5.68;2.30;;;18.10;82.20;;;;;;5116603;28;20210;-60
2023/05/17 12:28:34;;;;;;;5.03;2.25;;;18.00;84.80;;;;;;5116804;28;20621;-61
2023/05/17 12:31:03;;;;;;;5.43;2.35;;;18.10;85.90;;;;;;5115944;28;20211;-61
2023/05/17 12:33:32;;;;;;;5.53;2.85;;;18.00;86.90;;;;;;5116853;28;20277;-60
2023/05/17 12:36:01;;;;;;;4.00;2.20;;;18.20;87.00;;;;;;5117844;28;20291;-61
2023/05/17 12:38:31;;;;;;;5.15;2.40;;;18.00;87.00;;;;;;5117612;28;20281;-61
2023/05/17 12:40:59;;;;;;;5.63;2.65;;;17.70;87.70;;;;;;5116998;28;20348;-61
2023/05/17 12:43:27;;;;;;;4.80;2.92;;;17.60;88.50;;;;;;5117661;28;20281;-60
2023/05/17 12:45:54;;;;;;;6.05;2.40;;;17.40;89.30;;;;;;5116493;28;20211;-60
2023/05/17 12:48:26;;;;;;;6.95;2.75;;;17.20;90.00;;;;;;5116731;28;20204;-61
2023/05/17 12:50:54;;;;;;;6.68;2.67;;;17.10;90.00;;;;;;5117592;28;20665;-61
2023/05/17 12:53:22;;;;;;;4.82;2.65;;;17.00;89.50;;;;;;5117336;28;20204;-60
2023/05/17 12:55:49;;;;;;;5.20;2.50;;;16.90;89.90;;;;;;5115834;28;20286;-61